• Join FlightAware (Why Join?)
  • Login
  • US Flag 
03:23AM EST


 

Airport Tracker/Info


-or-


 

Live Flight TrackerFlight Track Log ✈ EJA951 ✈ 18-Sep-2013 ✈ KMBS - KPBI

Flight Track Log - Related Links

Times and Time Zones

All times are in EDT time to prevent confusion due to time zone crossing. See the EJA951 flight status page for this flight to view local times or setup timezone preferences in your user account.

Time Position Orientation Groundspeed Altitude Reporting Facility
EDT Latitude Longitude Course Direction KTS MPH feet Rate Location/Type
04:33PM 43.4600 -84.0469 160° South 196 226 5,400  Level Cleveland Center
04:34PM 43.3817 -84.0119 162° South 280 322 9,400 3,240 Climbing Cleveland Center
04:35PM 43.2867 -83.9667 161° South 354 407 12,200 3,120 Climbing Cleveland Center
04:37PM 43.1869 -83.9250 163° South 375 432 15,900 2,400 Climbing Cleveland Center
04:38PM 43.0850 -83.8814 163° South 383 441 17,200 1,020 Climbing Cleveland Center
04:39PM 42.7868 -83.8608 160° South  Level Estimated
04:39PM 42.9756 -83.8339 162° South 409 471 18,100  Level Cleveland Center
04:40PM 42.8631 -83.7858 163° South 424 488 19,100 1,320 Climbing Cleveland Center
04:41PM 42.7481 -83.7364 162° South 433 498 20,900 1,680 Climbing Cleveland Center
04:42PM 42.6128 -83.6797 163° South 428 493 22,700 1,740 Climbing Cleveland Center
04:43PM 42.4983 -83.6308 163° South 433 498 24,600 3,240 Climbing Cleveland Center
04:44PM 42.3947 -83.5875 163° South 393 452 29,400 3,420 Climbing Cleveland Center
04:45PM 42.2897 -83.5447 163° South 362 417 31,700 1,320 Climbing Cleveland Center
04:46PM 42.1808 -83.5042 165° South 390 449 32,200 480 Climbing Cleveland Center
04:47PM 42.0558 -83.4592 165° South 453 521 32,800 900 Climbing Cleveland Center
04:48PM 41.9278 -83.3989 161° South 479 551 34,100 1,020 Climbing Cleveland Center
04:49PM 41.7967 -83.3381 161° South 497 572 35,000 1,140 Climbing Cleveland Center
04:50PM 41.6608 -83.2747 161° South 514 592 36,500 1,740 Climbing Cleveland Center
04:51PM 41.5017 -83.1989 160° South 508 585 38,600 1,740 Climbing Cleveland Center
04:52PM 41.3683 -83.1381 161° South 502 578 40,200 1,140 Climbing Cleveland Center
04:53PM 41.2367 -83.0772 161° South 499 574 41,000 360 Climbing Cleveland Center
04:54PM 41.1053 -83.0175 161° South 497 572 41,000  Level Cleveland Center
04:55PM 40.9739 -82.9578 161° South 497 572 41,000  Level Cleveland Center
04:56PM 40.8664 -82.9097 161° South 492 566 41,000  Level Indianapolis Center
04:57PM 40.7131 -82.8392 161° South 495 570 41,000  Level Indianapolis Center
04:58PM 40.5817 -82.7806 161° South 497 572 41,000  Level Indianapolis Center
04:59PM 40.4511 -82.7214 161° South 495 570 41,000  Level Indianapolis Center
05:00PM 40.3186 -82.6625 161° South 499 574 41,000  Level Indianapolis Center
05:01PM 40.1772 -82.6017 162° South 498 573 41,000  Level Indianapolis Center
05:02PM 40.0408 -82.5733 171° South 496 571 41,000  Level Indianapolis Center
05:03PM 39.9028 -82.5533 174° South 497 572 41,000  Level Indianapolis Center
05:04PM 39.7647 -82.5356 174° South 496 571 41,000  Level Indianapolis Center
05:05PM 39.6267 -82.5169 174° South 497 572 41,000  Level Indianapolis Center
05:06PM 39.4608 -82.4939 174° South 497 572 41,000  Level Indianapolis Center
05:07PM 39.3350 -82.4769 174° South 497 572 41,000  Level Indianapolis Center
05:08PM 39.1978 -82.4581 174° South 497 572 41,000  Level Indianapolis Center
05:09PM 39.0336 -82.4350 174° South 495 570 41,000  Level Indianapolis Center
05:10PM 38.8947 -82.4172 174° South 500 575 41,000  Level Indianapolis Center
05:12PM 38.7564 -82.3994 174° South 502 578 41,000  Level Indianapolis Center
05:13PM 38.6203 -82.3978 179° South 493 567 41,000  Level Indianapolis Center
05:14PM 38.4828 -82.4061 183° South 495 570 41,000  Level Indianapolis Center
05:15PM 38.3453 -82.4142 183° South 496 571 41,000  Level Indianapolis Center
05:16PM 38.1817 -82.4250 183° South 493 567 41,000 300 Level Indianapolis Center
05:17PM 38.0542 -82.4339 183° South 490 564 41,700 840 Climbing Indianapolis Center
05:18PM 37.8922 -82.4119 174° South 497 572 42,800 600 Climbing Indianapolis Center
05:19PM 37.7517 -82.3858 172° South 508 585 43,000 60 Climbing Indianapolis Center
05:20PM 37.6108 -82.3622 172° South 506 582 43,000  Level Indianapolis Center
05:21PM 37.4714 -82.3381 172° South 500 575 43,000  Level Indianapolis Center
05:22PM 37.3303 -82.3128 172° South 506 582 43,000  Level Indianapolis Center
05:23PM 37.1939 -82.2603 163° South 518 596 43,000  Level Indianapolis Center
05:24PM 37.0386 -82.1783 157° South 513 590 43,000  Level Indianapolis Center
05:25PM 36.9056 -82.1083 157° South 514 592 43,000  Level Indianapolis Center
05:26PM 36.7886 -82.0456 157° South 515 593 43,000  Level Atlanta Center
05:27PM 36.6561 -81.9764 157° South 515 593 43,000  Level Atlanta Center
05:28PM 36.5239 -81.9153 160° South 515 593 43,000  Level Atlanta Center
05:29PM 36.3822 -81.9267 184° South 496 571 43,000  Level Atlanta Center
05:30PM 36.2697 -81.9400 185° South 501 577 43,000  Level Atlanta Center
05:31PM 36.1094 -81.9622 186° South 501 577 43,000  Level Atlanta Center
05:32PM 35.9681 -81.9836 187° South 506 582 43,000  Level Atlanta Center
05:33PM 35.8264 -82.0000 185° South 506 582 43,000  Level Atlanta Center
05:34PM 35.6911 -82.0189 186° South 505 581 43,000  Level Atlanta Center
05:35PM 35.5539 -82.0375 186° South 500 575 43,000  Level Atlanta Center
05:36PM 35.4164 -82.0536 185° South 500 575 43,000  Level Atlanta Center
05:37PM 35.2936 -82.0692 186° South 500 575 43,000  Level Atlanta Center
05:38PM 35.1561 -82.0853 185° South 500 575 43,000  Level Atlanta Center
05:39PM 35.0208 -82.1036 186° South 500 575 43,000  Level Atlanta Center
05:40PM 34.8875 -82.1169 185° South 491 565 43,000  Level Atlanta Center
05:41PM 34.7500 -82.1328 185° South 491 565 43,000  Level Atlanta Center
05:42PM 34.6167 -82.1458 185° South 491 565 43,000  Level Atlanta Center
05:43PM 34.4811 -82.1639 186° South 496 571 43,000  Level Atlanta Center
05:44PM 34.3458 -82.1794 185° South 496 571 43,000  Level Atlanta Center
05:45PM 34.2061 -82.1978 186° South 501 577 43,000  Level Atlanta Center
05:46PM 34.0728 -82.2106 185° South 495 570 43,000  Level Atlanta Center
05:47PM 33.9375 -82.2261 185° South 495 570 43,000  Level Atlanta Center
05:48PM 33.7997 -82.2389 184° South 495 570 43,000  Level Atlanta Center
05:49PM 33.6581 -82.2544 185° South 502 578 43,000  Level Atlanta Center
05:50PM 33.5103 -82.2772 187° South 502 578 43,000  Level Atlanta Center
05:51PM 33.3728 -82.2975 187° South 502 578 43,000  Level Atlanta Center
05:52PM 33.2372 -82.3128 185° South 497 572 43,000  Level Atlanta Center
05:53PM 33.1019 -82.3253 184° South 497 572 43,000  Level Atlanta Center
05:54PM 32.9664 -82.3428 186° South 497 572 43,000  Level Atlanta Center
05:55PM 32.8436 -82.3600 187° South 503 579 43,000  Level Atlanta Center
05:57PM 32.5706 -82.3872 185° South 482 555 43,000  Level Jacksonville Center
05:58PM 32.4308 -82.4028 185° South 481 554 43,000  Level Jacksonville Center
05:59PM 32.3139 -82.4206 187° South 488 562 43,000  Level Jacksonville Center
06:00PM 32.1742 -82.4361 185° South 488 562 43,000  Level Jacksonville Center
06:01PM 32.0425 -82.4514 186° South 488 562 43,000  Level Jacksonville Center
06:02PM 31.9047 -82.4644 185° South 494 568 43,000  Level Jacksonville Center
06:03PM 31.7692 -82.4819 186° South 499 574 43,000  Level Jacksonville Center
06:04PM 31.6314 -82.4950 185° South 499 574 43,000  Level Jacksonville Center
06:05PM 31.4958 -82.5075 184° South 499 574 43,000  Level Jacksonville Center
06:06PM 31.3433 -82.5203 184° South 504 580 43,000  Level Jacksonville Center
06:07PM 31.2078 -82.5258 182° South 504 580 43,000  Level Jacksonville Center
06:08PM 31.0700 -82.5311 182° South 498 573 43,000  Level Jacksonville Center
06:09PM 30.9342 -82.5389 183° South 498 573 43,000  Level Jacksonville Center
06:10PM 30.8006 -82.5419 181° South 498 573 43,000  Level Jacksonville Center
06:11PM 30.6606 -82.5497 183° South 498 573 43,000  Level Jacksonville Center
06:12PM 30.5250 -82.5550 182° South 498 573 43,000  Level Jacksonville Center
06:13PM 30.4017 -82.5481 177° South 498 573 43,000 -480 Level Jacksonville Center
06:14PM 30.2639 -82.5367 176° South 498 573 42,100 -1,020 Descending Jacksonville Center
06:15PM 30.1281 -82.5275 177° South 498 573 41,000 -600 Descending Jacksonville Center
06:16PM 29.9967 -82.5114 174° South 498 573 41,000  Level Jacksonville Center
06:17PM 29.8672 -82.5022 176° South 493 567 41,000  Level Jacksonville Center
06:18PM 29.7356 -82.4908 176° South 482 555 41,000  Level Jacksonville Center
06:19PM 29.5997 -82.4817 177° South 482 555 41,000  Level Jacksonville Center
06:20PM 29.4642 -82.4728 177° South 482 555 41,000  Level Jacksonville Center
06:21PM 29.3283 -82.4639 177° South 482 555 41,000  Level Jacksonville Center
06:22PM 29.1969 -82.4525 176° South 477 549 41,000  Level Jacksonville Center
06:23PM 29.0653 -82.4411 176° South 477 549 41,000  Level Jacksonville Center
06:24PM 28.9358 -82.4253 174° South 477 549 41,000  Level Jacksonville Center
06:25PM 28.8064 -82.4092 174° South 477 549 41,000  Level Jacksonville Center
06:26PM 28.6769 -82.3933 174° South 477 549 41,000  Level Jacksonville Center
06:27PM 28.5475 -82.3750 173° South 477 549 41,000  Level Jacksonville Center
06:28PM 28.4200 -82.3592 174° South 477 549 41,000  Level Jacksonville Center
06:30PM 28.1508 -82.3239 173° South 470 541 41,000  Level Miami Center
06:31PM 28.0242 -82.3058 173° South 460 529 41,000  Level Miami Center
06:32PM 27.9089 -82.2653 163° South 466 536 41,000  Level Miami Center
06:33PM 27.7811 -82.2239 164° South 471 542 41,000 -1,200 Level Miami Center
06:34PM 27.6553 -82.1806 163° South 471 542 38,600 -2,700 Descending Miami Center
06:35PM 27.5175 -82.1319 163° South 471 542 35,700 -1,800 Descending Miami Center
06:36PM 27.3958 -82.0889 163° South 471 542 35,000 -5,880 Descending Miami Center
06:37PM 27.2719 -82.0483 164° South 464 534 24,000 -4,500 Descending Miami Center
06:38PM 27.1567 -82.0081 163° South 478 550 26,000  Climbing Miami Center
06:39PM 27.0183 -81.9647 164° South 492 566 24,000 -1,800 Descending Miami Center
06:40PM 26.8978 -81.8872 150° Southeast 480 552 22,500 -1,500 Descending Miami Center
06:41PM 26.8028 -81.7994 140° Southeast 454 522 21,000 -1,620 Descending Miami Center
06:42PM 26.7225 -81.7056 134° Southeast 435 501 19,300 -1,020 Descending Miami Center
06:43PM 26.7008 -81.5978 103° East 381 438 19,000 -180 Descending Miami Center
06:44PM 26.7256 -81.4825 76° East 340 391 19,000  Level Miami Center
06:45PM 26.7475 -81.3833 76° East 334 384 19,000 -780 Level Miami Center
06:46PM 26.7689 -81.2933 75° East 334 384 17,500 -1,560 Descending Miami Center
06:47PM 26.7928 -81.2014 74° East 310 357 15,900 -1,560 Descending Miami Center
06:48PM 26.8142 -81.1136 75° East 296 341 14,400 -1,620 Descending Miami Center
06:49PM 26.8211 -81.0161 85° East 291 335 12,700 -1,680 Descending Miami Center
06:50PM 26.8322 -80.9211 83° East 298 343 11,100 -1,380 Descending Miami Center
06:51PM 26.8219 -80.8300 97° East 293 337 10,000 -600 Descending Miami Center
06:52PM 26.8033 -80.7525 105° East 282 325 10,000 -60 Level Miami Center
06:53PM 26.7828 -80.6567 103° East 282 325 9,900 -900 Descending Miami Center
06:54PM 26.7661 -80.5817 104° East 282 325 8,300 -1,500 Descending Miami Center
06:55PM 26.7492 -80.5042 104° East 246 283 7,000 -1,200 Descending Miami Center
06:56PM 26.7339 -80.4458 106° East 221 254 5,900 -1,200 Descending Miami Center
06:57PM 26.7211 -80.3708 101° East 221 254 4,700 -1,200 Descending Miami Center
06:58PM 26.7058 -80.3075 105° East 231 266 3,500 -1,260 Descending Miami Center
06:59PM 26.6889 -80.2303 104° East 237 273 2,200 -1,320 Descending Miami Center
07:01PM 26.6832 -80.0956 50° Northeast  Level Estimated
07:08PM 26.6832 -80.0956 50° Northeast  Level Estimated
07:09PM 26.6832 -80.0956 50° Northeast  Level Estimated
07:10PM 26.6832 -80.0956 50° Northeast  Level Estimated